createdAt,value
2019-04-11T00:02:29.047Z,14.70
2019-04-11T00:05:00.262Z,15.97
2019-04-11T00:07:32.103Z,16.07
2019-04-11T00:10:04.820Z,15.00
2019-04-11T00:12:36.794Z,15.73
2019-04-11T00:15:08.601Z,16.13
2019-04-11T00:17:41.832Z,13.63
2019-04-11T00:20:13.079Z,14.67
2019-04-11T00:22:44.304Z,15.50
2019-04-11T00:25:15.713Z,15.73
2019-04-11T00:27:47.305Z,14.77
2019-04-11T00:30:19.827Z,15.47
2019-04-11T00:32:51.874Z,14.83
2019-04-11T00:35:23.816Z,15.27
2019-04-11T00:37:55.239Z,13.93
2019-04-11T00:40:26.979Z,13.87
2019-04-11T00:42:58.912Z,15.17
2019-04-11T00:45:31.740Z,14.37
2019-04-11T00:48:03.837Z,15.03
2019-04-11T00:50:35.397Z,15.93
2019-04-11T00:53:06.723Z,16.17
2019-04-11T00:55:37.931Z,15.73
2019-04-11T00:58:09.815Z,15.47
2019-04-11T01:00:42.905Z,16.10
2019-04-11T01:03:14.864Z,14.63
2019-04-11T01:05:46.062Z,13.87
2019-04-11T01:08:17.698Z,13.53
2019-04-11T01:10:49.749Z,13.93
2019-04-11T01:13:20.970Z,14.03
2019-04-11T01:15:57.187Z,12.60
2019-04-11T01:18:29.842Z,13.23
2019-04-11T01:21:02.070Z,13.87
2019-04-11T01:23:33.431Z,12.53
2019-04-11T01:26:05.767Z,13.43
2019-04-11T01:28:37.003Z,12.53
2019-04-11T01:31:09.905Z,12.77
2019-04-11T01:33:42.262Z,11.03
2019-04-11T01:36:13.757Z,11.40
2019-04-11T01:38:48.875Z,10.93
2019-04-11T01:41:20.522Z,12.23
2019-04-11T01:43:56.292Z,11.10
2019-04-11T01:46:24.549Z,10.73
2019-04-11T01:49:17.751Z,11.60
2019-04-11T01:51:49.782Z,10.37
2019-04-11T01:54:21.785Z,10.40
2019-04-11T01:56:53.695Z,11.83
2019-04-11T01:59:24.950Z,11.73
2019-04-11T02:02:05.692Z,12.33
2019-04-11T02:04:41.567Z,11.07
2019-04-11T02:07:12.763Z,11.73
2019-04-11T02:09:44.233Z,12.03
2019-04-11T02:12:16.262Z,11.77
2019-04-11T02:14:47.982Z,12.90
2019-04-11T02:17:19.167Z,11.47
2019-04-11T02:19:50.491Z,11.43
2019-04-11T02:22:34.811Z,11.90
2019-04-11T02:25:26.023Z,11.23
2019-04-11T02:27:58.765Z,11.90
2019-04-11T02:30:30.913Z,12.53
2019-04-11T02:33:02.372Z,11.83
2019-04-11T02:35:34.983Z,12.17
2019-04-11T02:38:07.662Z,11.07
2019-04-11T02:40:41.152Z,11.50
2019-04-11T02:43:13.405Z,11.07
2019-04-11T02:46:00.129Z,12.03
2019-04-11T02:48:20.417Z,12.20
2019-04-11T02:50:52.132Z,13.27
2019-04-11T02:53:24.485Z,14.77
2019-04-11T02:55:56.606Z,14.17
2019-04-11T02:58:30.266Z,13.87
2019-04-11T03:01:03.527Z,14.73
2019-04-11T03:03:34.118Z,14.93
2019-04-11T03:06:07.142Z,14.37
2019-04-11T03:08:39.174Z,12.93
2019-04-11T03:11:11.347Z,12.40
2019-04-11T03:13:44.402Z,12.50
2019-04-11T03:16:32.830Z,11.27
2019-04-11T03:19:08.164Z,11.73
2019-04-11T03:21:25.768Z,10.37
2019-04-11T03:23:56.234Z,11.30
2019-04-11T03:26:29.193Z,11.37
2019-04-11T03:29:02.053Z,12.13
2019-04-11T03:32:13.207Z,11.27
2019-04-11T03:39:35.973Z,10.77
2019-04-11T03:42:04.133Z,11.73
2019-04-11T03:44:25.411Z,10.17
2019-04-11T03:47:14.802Z,11.43
2019-04-11T03:49:36.737Z,10.10
2019-04-11T03:51:59.201Z,11.30
2019-04-11T03:54:31.839Z,9.80
2019-04-11T03:57:05.520Z,10.40
2019-04-11T03:59:39.024Z,10.47
2019-04-11T04:02:13.018Z,10.50
2019-04-11T04:04:45.524Z,10.47
2019-04-11T04:07:16.898Z,10.63
2019-04-11T04:09:48.900Z,9.87
2019-04-11T04:12:20.884Z,9.97
2019-04-11T04:15:09.130Z,9.30
2019-04-11T04:18:03.397Z,10.50
2019-04-11T04:21:10.802Z,10.27
2019-04-11T04:23:45.539Z,9.80
2019-04-11T04:26:18.959Z,10.17
2019-04-11T04:28:51.184Z,10.40
2019-04-11T04:31:22.631Z,11.50
2019-04-11T04:33:55.511Z,10.53
2019-04-11T04:36:29.443Z,10.30
2019-04-11T04:39:01.409Z,10.37
2019-04-11T04:41:41.317Z,11.80
2019-04-11T04:44:08.600Z,11.53
2019-04-11T04:46:55.403Z,9.80
2019-04-11T04:49:13.246Z,10.37
2019-04-11T04:51:45.736Z,10.87
2019-04-11T04:54:16.893Z,10.20
2019-04-11T04:56:50.211Z,10.77
2019-04-11T04:59:23.657Z,9.90
2019-04-11T05:01:55.938Z,9.63
2019-04-11T05:04:27.592Z,10.83
2019-04-11T05:06:59.025Z,10.27
2019-04-11T05:09:31.905Z,10.33
2019-04-11T05:12:03.444Z,9.17
2019-04-11T05:14:35.109Z,9.43
2019-04-11T05:17:06.836Z,9.50
2019-04-11T05:19:38.377Z,9.50
2019-04-11T05:22:10.571Z,7.73
2019-04-11T05:24:41.724Z,9.63
2019-04-11T05:27:12.743Z,8.43
2019-04-11T05:29:43.985Z,9.17
2019-04-11T05:32:15.479Z,8.80
2019-04-11T05:34:46.707Z,8.60
2019-04-11T05:37:18.626Z,7.87
2019-04-11T05:39:50.462Z,8.73
2019-04-11T05:42:24.915Z,8.53
2019-04-11T05:44:54.813Z,8.60
2019-04-11T05:47:26.123Z,8.60
2019-04-11T05:50:16.223Z,7.97
2019-04-11T05:52:48.274Z,7.30
2019-04-11T05:55:19.538Z,7.87
2019-04-11T05:57:50.667Z,7.60
2019-04-11T06:00:46.665Z,7.03
2019-04-11T06:03:17.832Z,6.60
2019-04-11T06:05:59.714Z,6.70
2019-04-11T06:08:31.792Z,5.60
2019-04-11T06:11:28.519Z,5.70
2019-04-11T06:14:34.003Z,6.17
2019-04-11T06:17:09.128Z,5.50
2019-04-11T06:19:53.636Z,6.50
2019-04-11T06:22:25.566Z,4.73
2019-04-11T06:25:16.417Z,5.33
2019-04-11T06:27:53.590Z,4.87
2019-04-11T06:30:44.397Z,5.60
2019-04-11T06:33:34.503Z,4.70
2019-04-11T06:36:33.796Z,4.13
2019-04-11T06:39:15.574Z,4.17
2019-04-11T06:42:05.900Z,3.40
2019-04-11T06:44:46.074Z,4.10
2019-04-11T06:47:36.768Z,3.27
2019-04-11T06:50:33.931Z,3.70
2019-04-11T06:53:07.354Z,2.77
2019-04-11T06:55:57.719Z,2.90
2019-04-11T06:58:33.000Z,2.70
2019-04-11T07:01:09.674Z,2.47
2019-04-11T07:03:49.066Z,2.90
2019-04-11T07:06:23.812Z,2.30
2019-04-11T07:09:10.224Z,2.77
2019-04-11T07:11:53.713Z,2.50
2019-04-11T07:14:43.803Z,2.40
2019-04-11T07:17:33.793Z,2.50
2019-04-11T07:20:37.916Z,2.63
2019-04-11T07:23:26.956Z,2.60
2019-04-11T07:26:06.471Z,2.50
2019-04-11T07:29:02.625Z,3.17
2019-04-11T07:32:00.889Z,2.70
2019-04-11T07:34:52.667Z,3.10
2019-04-11T07:37:47.160Z,3.10
2019-04-11T07:40:36.950Z,3.10
2019-04-11T07:43:22.628Z,2.90
2019-04-11T07:46:25.551Z,3.23
2019-04-11T07:49:01.498Z,2.70
2019-04-11T07:51:34.777Z,2.87
2019-04-11T07:54:09.229Z,3.10
2019-04-11T07:56:46.359Z,3.22
2019-04-11T07:59:37.544Z,2.70
2019-04-11T08:02:26.887Z,2.95
2019-04-11T08:05:36.559Z,2.40
2019-04-11T08:08:21.402Z,3.12
2019-04-11T08:11:11.506Z,2.30
2019-04-11T08:14:06.313Z,2.95
2019-04-11T08:16:55.975Z,2.60
2019-04-11T08:19:45.186Z,2.87
2019-04-11T08:22:37.030Z,2.35
2019-04-11T08:25:29.234Z,2.47
2019-04-11T08:28:05.929Z,2.20
2019-04-11T08:30:46.790Z,2.40
2019-04-11T08:33:18.695Z,2.10
2019-04-11T08:36:09.278Z,2.30
2019-04-11T08:38:41.065Z,2.30
2019-04-11T08:41:31.735Z,2.50
2019-04-11T08:44:08.431Z,2.60
2019-04-11T08:46:43.163Z,2.20
2019-04-11T08:49:29.913Z,2.22
2019-04-11T08:52:05.518Z,2.40
2019-04-11T08:54:55.695Z,2.20
2019-04-11T08:57:47.678Z,2.12
2019-04-11T09:00:44.596Z,2.45
2019-04-11T09:04:02.098Z,2.35
2019-04-11T09:06:30.822Z,2.50
2019-04-11T09:09:36.794Z,2.47
2019-04-11T09:12:12.130Z,1.95
2019-04-11T09:15:02.572Z,2.08
2019-04-11T09:17:56.776Z,2.42
2019-04-11T09:20:38.337Z,1.95
2019-04-11T09:23:13.427Z,2.10
2019-04-11T09:26:03.631Z,2.00
2019-04-11T09:28:46.262Z,2.27
2019-04-11T09:31:42.233Z,2.42
2019-04-11T09:34:25.929Z,2.37
2019-04-11T09:37:17.667Z,2.58
2019-04-11T09:40:01.731Z,2.43
2019-04-11T09:43:05.489Z,2.33
2019-04-11T09:45:54.302Z,2.30
2019-04-11T09:48:44.323Z,2.27
2019-04-11T09:51:44.563Z,2.30
2019-04-11T09:54:33.921Z,2.30
2019-04-11T09:57:18.621Z,2.27
2019-04-11T10:00:26.973Z,1.80
2019-04-11T10:03:02.267Z,2.47
2019-04-11T10:05:40.786Z,2.40
2019-04-11T10:08:43.677Z,2.47
2019-04-11T10:11:32.631Z,2.50
2019-04-11T10:14:13.363Z,2.13
2019-04-11T10:17:02.659Z,2.00
2019-04-11T10:20:08.706Z,2.43
2019-04-11T10:23:05.103Z,2.20
2019-04-11T10:25:43.988Z,2.30
2019-04-11T10:28:34.006Z,2.47
2019-04-11T10:31:10.613Z,1.90
2019-04-11T10:34:01.418Z,2.37
2019-04-11T10:36:41.638Z,2.30
2019-04-11T10:39:31.936Z,2.33
2019-04-11T10:42:08.520Z,2.43
2019-04-11T10:44:58.823Z,2.23
2019-04-11T10:47:31.180Z,2.40
2019-04-11T10:50:15.352Z,2.33
2019-04-11T10:52:50.855Z,2.10
2019-04-11T10:55:30.579Z,2.27
2019-04-11T10:58:04.802Z,2.50
2019-04-11T11:00:57.736Z,2.30
2019-04-11T11:03:38.254Z,2.10
2019-04-11T11:06:09.455Z,2.57
2019-04-11T11:09:05.993Z,2.83
2019-04-11T11:11:42.463Z,2.30
2019-04-11T11:14:32.503Z,2.53
2019-04-11T11:17:10.799Z,2.40
2019-04-11T11:20:11.941Z,2.70
2019-04-11T11:22:52.298Z,2.40
2019-04-11T11:25:50.022Z,2.33
2019-04-11T11:28:22.255Z,2.53
2019-04-11T11:31:30.483Z,2.67
2019-04-11T11:34:02.827Z,2.50
2019-04-11T11:36:54.472Z,2.10
2019-04-11T11:39:35.308Z,2.40
2019-04-11T11:42:36.658Z,2.50
2019-04-11T11:45:15.167Z,2.33
2019-04-11T11:47:55.309Z,2.07
2019-04-11T11:50:26.798Z,2.43
2019-04-11T11:53:16.426Z,2.63
2019-04-11T11:55:48.111Z,2.13
2019-04-11T11:58:42.678Z,2.20
2019-04-11T12:01:13.844Z,2.20
2019-04-11T12:04:07.083Z,2.07
2019-04-11T12:06:38.979Z,2.20
2019-04-11T12:09:32.295Z,2.33
2019-04-11T12:12:13.502Z,2.80
2019-04-11T12:15:22.056Z,2.30
2019-04-11T12:18:18.462Z,2.20
2019-04-11T12:20:57.534Z,2.30
2019-04-11T12:23:55.471Z,2.10
2019-04-11T12:26:18.515Z,2.37
2019-04-11T12:29:08.289Z,2.30
2019-04-11T12:31:41.871Z,2.20
2019-04-11T12:34:36.855Z,2.00
2019-04-11T12:37:14.858Z,2.00
2019-04-11T12:40:09.559Z,2.80
2019-04-11T12:42:40.879Z,2.00
2019-04-11T12:45:47.753Z,2.20
2019-04-11T12:48:19.314Z,2.30
2019-04-11T12:51:21.519Z,2.50
2019-04-11T12:53:52.763Z,2.67
2019-04-11T12:57:00.796Z,2.67
2019-04-11T12:59:32.035Z,2.47
2019-04-11T13:02:20.879Z,2.70
2019-04-11T13:04:51.307Z,2.63
2019-04-11T13:07:47.338Z,2.40
2019-04-11T13:10:27.059Z,2.67
2019-04-11T13:13:19.819Z,2.40
2019-04-11T13:16:19.927Z,2.50
2019-04-11T13:19:08.923Z,2.53
2019-04-11T13:21:52.934Z,2.50
2019-04-11T13:24:49.007Z,2.60
2019-04-11T13:27:22.061Z,2.27
2019-04-11T13:30:17.854Z,2.60
2019-04-11T13:32:59.503Z,2.77
2019-04-11T13:36:04.828Z,2.70
2019-04-11T13:38:43.447Z,2.43
2019-04-11T13:41:49.123Z,2.17
2019-04-11T13:44:35.187Z,2.00
2019-04-11T13:47:43.691Z,2.10
2019-04-11T13:50:16.928Z,2.30
2019-04-11T13:53:05.036Z,2.50
2019-04-11T13:55:39.068Z,2.57
2019-04-11T13:58:34.318Z,2.67
2019-04-11T14:01:11.447Z,2.37
2019-04-11T14:03:50.383Z,2.00
2019-04-11T14:06:35.558Z,2.23
2019-04-11T14:09:30.740Z,1.90
2019-04-11T14:12:05.089Z,2.03
2019-04-11T14:14:58.036Z,2.20
2019-04-11T14:17:46.662Z,2.37
2019-04-11T14:20:29.044Z,2.30
2019-04-11T14:23:13.582Z,2.30
2019-04-11T14:25:55.987Z,2.60
2019-04-11T14:28:30.792Z,2.40
2019-04-11T14:31:21.906Z,2.10
2019-04-11T14:33:56.649Z,2.37
2019-04-11T14:37:04.832Z,2.70
2019-04-11T14:39:38.453Z,2.63
2019-04-11T14:42:34.351Z,3.37
2019-04-11T14:45:08.799Z,3.47
2019-04-11T14:47:57.799Z,3.00
2019-04-11T14:50:40.866Z,3.20
2019-04-11T14:53:35.275Z,3.97
2019-04-11T14:56:08.263Z,3.20
2019-04-11T14:58:57.151Z,3.43
2019-04-11T15:01:28.660Z,2.63
2019-04-11T15:04:19.056Z,2.80
2019-04-11T15:06:51.866Z,2.67
2019-04-11T15:09:46.510Z,2.30
2019-04-11T15:12:31.019Z,2.83
2019-04-11T15:15:22.485Z,3.40
2019-04-11T15:20:56.019Z,2.63
2019-04-11T15:23:37.506Z,3.07
2019-04-11T15:26:24.986Z,2.90
2019-04-11T15:29:09.267Z,2.67
2019-04-11T15:32:01.969Z,3.00
2019-04-11T15:34:38.031Z,2.93
2019-04-11T15:37:21.363Z,2.40
2019-04-11T15:40:00.606Z,3.00
2019-04-11T15:42:49.279Z,2.83
2019-04-11T15:45:37.995Z,2.93
2019-04-11T15:48:40.119Z,2.87
2019-04-11T15:51:28.848Z,3.43
2019-04-11T15:54:27.632Z,3.30
2019-04-11T15:57:12.700Z,2.83
2019-04-11T16:00:01.811Z,3.90
2019-04-11T16:02:56.867Z,3.23
2019-04-11T16:05:50.115Z,3.40
2019-04-11T16:08:38.795Z,3.63
2019-04-11T16:11:41.194Z,3.20
2019-04-11T16:14:18.246Z,3.57
2019-04-11T16:17:13.735Z,3.60
2019-04-11T16:20:03.148Z,3.93
2019-04-11T16:22:59.876Z,4.23
2019-04-11T16:25:31.115Z,4.80
2019-04-11T16:28:30.251Z,5.80
2019-04-11T16:31:01.791Z,5.37
2019-04-11T16:34:00.135Z,4.50
2019-04-11T16:36:47.995Z,4.63
2019-04-11T16:39:52.168Z,4.60
2019-04-11T16:42:30.975Z,4.00
2019-04-11T16:45:25.199Z,3.40
2019-04-11T16:48:09.086Z,3.60
2019-04-11T16:50:40.230Z,4.00
2019-04-11T16:53:11.794Z,3.67
2019-04-11T16:55:43.635Z,3.10
2019-04-11T16:58:19.327Z,3.67
2019-04-11T17:00:52.130Z,3.57
2019-04-11T17:03:24.860Z,3.07
2019-04-11T17:06:12.058Z,3.23
2019-04-11T17:08:51.525Z,3.70
2019-04-11T17:11:22.407Z,3.63
2019-04-11T17:13:57.046Z,3.63
2019-04-11T17:16:29.891Z,3.40
2019-04-11T17:18:59.463Z,3.67
2019-04-11T17:21:42.499Z,3.70
2019-04-11T17:24:04.505Z,3.33
2019-04-11T17:26:36.019Z,3.07
2019-04-11T17:29:07.207Z,3.80
2019-04-11T17:31:38.411Z,4.80
2019-04-11T17:34:09.825Z,4.57
2019-04-11T17:36:41.171Z,5.03
2019-04-11T17:39:12.981Z,4.97
2019-04-11T17:41:44.204Z,4.97
2019-04-11T17:44:15.820Z,5.10
2019-04-11T17:46:47.419Z,5.27
2019-04-11T17:49:17.938Z,5.23
2019-04-11T17:51:55.624Z,5.27
2019-04-11T17:54:24.702Z,6.63
2019-04-11T17:56:54.869Z,5.67
2019-04-11T17:59:28.810Z,5.90
2019-04-11T18:02:00.708Z,5.70
2019-04-11T18:04:31.991Z,5.17
2019-04-11T18:07:03.195Z,5.03
2019-04-11T18:09:34.482Z,4.80
2019-04-11T18:12:05.699Z,5.60
2019-04-11T18:14:36.831Z,5.60
2019-04-11T18:17:08.187Z,6.37
2019-04-11T18:19:39.334Z,6.30
2019-04-11T18:22:13.399Z,6.00
2019-04-11T18:24:43.600Z,7.43
2019-04-11T18:27:14.688Z,7.60
2019-04-11T18:29:45.967Z,6.00
2019-04-11T18:32:16.436Z,7.07
2019-04-11T18:34:47.475Z,5.47
2019-04-11T18:37:18.671Z,6.27
2019-04-11T18:39:49.691Z,6.40
2019-04-11T18:42:21.191Z,5.70
2019-04-11T18:44:52.550Z,6.03
2019-04-11T18:47:24.275Z,5.63
2019-04-11T18:49:55.971Z,5.77
2019-04-11T18:52:28.999Z,6.27
2019-04-11T18:55:00.651Z,5.50
2019-04-11T18:57:31.131Z,5.93
2019-04-11T19:00:07.046Z,5.40
2019-04-11T19:02:35.279Z,6.40
2019-04-11T19:05:07.118Z,7.50
2019-04-11T19:07:43.620Z,6.80
2019-04-11T19:10:15.716Z,6.73
2019-04-11T19:12:47.089Z,6.80
2019-04-11T19:15:19.116Z,6.00
2019-04-11T19:17:55.513Z,6.30
2019-04-11T19:20:23.655Z,5.97
2019-04-11T19:22:54.898Z,5.70
2019-04-11T19:25:26.543Z,6.33
2019-04-11T19:27:57.823Z,6.80
2019-04-11T19:30:29.955Z,7.03
2019-04-11T19:33:01.029Z,6.40
2019-04-11T19:35:31.384Z,6.57
2019-04-11T19:38:02.172Z,7.53
2019-04-11T19:40:33.309Z,7.33
2019-04-11T19:43:04.612Z,8.20
2019-04-11T19:45:35.779Z,7.53
2019-04-11T19:48:06.750Z,7.00
2019-04-11T19:50:38.874Z,7.57
2019-04-11T19:53:12.347Z,6.70
2019-04-11T19:56:17.335Z,6.00
2019-04-11T19:58:48.672Z,6.40
2019-04-11T20:01:22.786Z,6.80
2019-04-11T20:03:54.140Z,7.40
2019-04-11T20:06:26.305Z,6.33
2019-04-11T20:08:57.526Z,6.90
2019-04-11T20:11:29.367Z,7.17
2019-04-11T20:14:02.869Z,6.77
2019-04-11T20:16:41.847Z,7.30
2019-04-11T20:19:06.811Z,6.20
2019-04-11T20:21:39.067Z,5.83
2019-04-11T20:24:14.077Z,6.27
2019-04-11T20:26:43.391Z,5.90
2019-04-11T20:29:14.463Z,5.60
2019-04-11T20:31:48.799Z,5.03
2019-04-11T20:34:27.415Z,5.17
2019-04-11T20:36:52.815Z,5.23
2019-04-11T20:42:09.094Z,4.87
2019-04-11T20:44:40.487Z,5.17
2019-04-11T20:47:11.968Z,5.67
2019-04-11T20:49:49.847Z,5.37
2019-04-11T20:52:21.427Z,5.83
2019-04-11T20:54:52.559Z,5.97
2019-04-11T20:57:25.970Z,5.97
2019-04-11T20:59:56.671Z,5.80
2019-04-11T21:02:29.031Z,6.30
2019-04-11T21:05:01.274Z,6.27
2019-04-11T21:07:33.992Z,6.17
2019-04-11T21:10:05.807Z,5.03
2019-04-11T21:12:37.959Z,5.13
2019-04-11T21:15:29.659Z,5.17
2019-04-11T21:18:00.831Z,5.47
2019-04-11T21:20:31.451Z,5.77
2019-04-11T21:23:01.699Z,5.23
2019-04-11T21:25:32.009Z,5.30
2019-04-11T21:28:03.056Z,5.73
2019-04-11T21:30:34.289Z,4.90
2019-04-11T21:33:05.611Z,5.17
2019-04-11T21:35:36.747Z,4.67
2019-04-11T21:38:30.932Z,4.47
2019-04-11T21:41:05.898Z,4.07
2019-04-11T21:43:36.843Z,4.30
2019-04-11T21:46:08.072Z,4.97
2019-04-11T21:48:40.217Z,4.20
2019-04-11T21:51:12.018Z,4.90
2019-04-11T21:53:45.167Z,4.63
2019-04-11T21:56:18.769Z,5.27
2019-04-11T21:58:50.125Z,5.40
2019-04-11T22:01:24.842Z,5.57
2019-04-11T22:03:57.736Z,5.20
2019-04-11T22:06:30.499Z,5.17
2019-04-11T22:09:04.882Z,5.77
2019-04-11T22:11:38.438Z,5.63
2019-04-11T22:14:10.938Z,5.43
2019-04-11T22:16:45.054Z,5.37
2019-04-11T22:19:15.056Z,4.60
2019-04-11T22:21:46.062Z,4.53
2019-04-11T22:24:17.191Z,4.57
2019-04-11T22:26:50.521Z,4.73
2019-04-11T22:29:24.820Z,4.43
2019-04-11T22:31:56.033Z,4.13
2019-04-11T22:34:39.459Z,4.40
2019-04-11T22:37:10.582Z,3.83
2019-04-11T22:39:41.770Z,4.30
2019-04-11T22:42:13.072Z,4.17
2019-04-11T22:44:44.355Z,4.40
2019-04-11T22:47:15.674Z,4.13
2019-04-11T22:49:46.719Z,5.43
2019-04-11T22:52:18.055Z,4.90
2019-04-11T22:54:50.251Z,5.27
2019-04-11T22:57:21.375Z,4.00
2019-04-11T22:59:52.522Z,4.77
2019-04-11T23:02:31.324Z,4.37
2019-04-11T23:05:02.496Z,4.97
2019-04-11T23:07:34.143Z,5.50
2019-04-11T23:10:05.538Z,5.17
2019-04-11T23:12:36.747Z,5.00
2019-04-11T23:15:08.291Z,5.33
2019-04-11T23:17:41.761Z,4.10
2019-04-11T23:20:14.448Z,5.10
2019-04-11T23:22:46.223Z,4.80
2019-04-11T23:25:17.390Z,4.40
2019-04-11T23:27:48.569Z,4.80
2019-04-11T23:30:19.651Z,5.07
2019-04-11T23:32:51.727Z,5.13
2019-04-11T23:35:22.915Z,4.73
2019-04-11T23:37:54.027Z,5.23
2019-04-11T23:40:25.199Z,5.97
2019-04-11T23:42:56.503Z,5.27
2019-04-11T23:45:28.820Z,5.30
2019-04-11T23:47:59.931Z,4.80
2019-04-11T23:50:31.107Z,4.67
2019-04-11T23:53:02.215Z,4.90
2019-04-11T23:55:33.375Z,4.63
2019-04-11T23:58:04.554Z,5.20
